Time;durP1;ratioP1;P1;durP2;ratioP2;P2;SDS_P1;SDS_P2;PMS_P1;PMS_P2;Temp;Humidity;BMP_temperature;BMP_pressure;BME280_temperature;BME280_humidity;BME280_pressure;Samples;Min_cycle;Max_cycle;Signal;HPM_P1;HPM_P2
2023/10/12 00:00:52;;;;;;;12.80;6.30;;;;;;;16.14;78.69;96691.29;109157;1269;22530;-81
2023/10/12 00:03:44;;;;;;;13.00;5.80;;;;;;;16.22;78.68;96701.83;105167;1270;5182670;-81
2023/10/12 00:06:26;;;;;;;12.60;5.50;;;;;;;16.23;78.77;96697.36;109210;1268;22491;-80
2023/10/12 00:09:16;;;;;;;;;;;;;;;16.23;78.68;96700.04;109099;1273;24225;-81
2023/10/12 00:12:01;;;;;;;11.90;5.70;;;;;;;16.23;78.70;96699.25;109116;1269;22518;-82
2023/10/12 00:14:41;;;;;;;11.60;5.50;;;;;;;16.22;78.67;96704.66;109088;1262;46778;-81
2023/10/12 00:17:13;;;;;;;12.20;5.60;;;;;;;16.24;78.66;96698.94;109115;1269;23163;-82
2023/10/12 00:19:51;;;;;;;9.40;5.30;;;;;;;16.27;78.60;96700.92;109121;1269;25396;-80
2023/10/12 00:22:30;;;;;;;13.50;6.00;;;;;;;16.27;78.55;96695.20;109126;1266;22515;-81
2023/10/12 00:25:05;;;;;;;12.20;5.80;;;;;;;16.29;78.53;96692.98;109121;1266;65012;-81
2023/10/12 00:27:42;;;;;;;11.10;5.40;;;;;;;16.31;78.43;96698.48;109173;1272;23778;-81
2023/10/12 00:30:31;;;;;;;14.20;6.40;;;;;;;16.29;78.33;96690.39;109225;1268;23808;-81
2023/10/12 00:33:08;;;;;;;15.50;5.80;;;;;;;16.29;78.34;96689.84;109228;1271;23292;-81
2023/10/12 00:35:44;;;;;;;11.20;6.40;;;;;;;16.26;78.32;96686.04;109186;1271;22592;-81
2023/10/12 00:38:23;;;;;;;10.20;5.70;;;;;;;16.22;78.45;96690.17;109231;1266;23967;-81
2023/10/12 00:41:04;;;;;;;12.90;5.60;;;;;;;16.20;78.50;96678.58;109201;1272;24201;-81
2023/10/12 00:44:08;;;;;;;10.10;5.30;;;;;;;16.17;78.59;96684.38;109222;1271;44335;-81
2023/10/12 00:46:58;;;;;;;12.60;5.80;;;;;;;16.13;78.61;96680.85;109279;1272;22522;-81
2023/10/12 00:49:34;;;;;;;13.30;5.80;;;;;;;16.15;78.58;96679.42;109234;1267;22476;-81
2023/10/12 00:52:45;;;;;;;14.40;6.40;;;;;;;16.16;78.55;96675.25;108991;1271;22515;-81
2023/10/12 00:55:35;;;;;;;10.30;5.50;;;;;;;16.13;78.61;96669.23;109187;1271;39193;-81
2023/10/12 00:58:17;;;;;;;12.30;5.80;;;;;;;16.13;78.61;96664.20;109270;1264;22525;-81
2023/10/12 01:00:52;;;;;;;13.70;6.70;;;;;;;16.14;78.56;96672.41;109221;1271;22702;-80
2023/10/12 01:03:35;;;;;;;9.70;5.10;;;;;;;16.13;78.53;96665.40;109187;1271;55967;-81
2023/10/12 01:06:28;;;;;;;13.70;5.40;;;;;;;16.10;78.53;96663.45;109234;1265;22504;-80
2023/10/12 01:09:21;;;;;;;11.80;5.90;;;;;;;16.10;78.55;96662.22;109235;1269;22826;-81
2023/10/12 01:11:58;;;;;;;9.50;5.70;;;;;;;16.09;78.62;96656.27;109280;1270;24057;-81
2023/10/12 01:14:40;;;;;;;12.40;6.00;;;;;;;16.12;78.61;96650.23;109220;1251;42766;-81
2023/10/12 01:17:24;;;;;;;11.20;5.90;;;;;;;16.19;78.52;96650.52;109244;1271;22514;-81
2023/10/12 01:19:59;;;;;;;11.20;5.50;;;;;;;16.23;78.31;96653.27;109178;1271;22533;-81
2023/10/12 01:22:31;;;;;;;12.90;5.70;;;;;;;16.28;78.13;96645.78;109222;1266;25418;-81
2023/10/12 01:25:19;;;;;;;8.60;5.50;;;;;;;16.28;77.83;96645.37;109081;1271;39553;-81
2023/10/12 01:27:53;;;;;;;14.20;5.70;;;;;;;16.36;77.73;96648.88;109225;1271;22528;-81
2023/10/12 01:30:29;;;;;;;11.80;5.70;;;;;;;16.42;77.52;96646.33;109231;1271;22568;-81
2023/10/12 01:33:04;;;;;;;9.30;5.00;;;;;;;16.44;77.18;96641.13;109264;1269;23092;-81
2023/10/12 01:35:48;;;;;;;12.90;5.70;;;;;;;16.43;77.13;96647.14;109149;1265;32495;-80
2023/10/12 01:38:23;;;;;;;13.00;6.10;;;;;;;16.39;77.09;96644.44;109181;1271;25406;-80
2023/10/12 01:40:56;;;;;;;12.00;5.70;;;;;;;16.38;77.05;96644.32;109264;1266;22507;-81
2023/10/12 01:43:35;;;;;;;;;;;;;;;16.35;77.14;96648.54;109177;1269;57041;-81
2023/10/12 01:46:16;;;;;;;12.70;6.20;;;;;;;16.33;77.21;96643.47;109227;1272;22559;-80
2023/10/12 01:48:52;;;;;;;12.50;6.20;;;;;;;16.38;77.16;96642.73;109230;1268;24231;-81
2023/10/12 01:51:29;;;;;;;12.60;6.70;;;;;;;16.42;76.93;96648.16;109207;1266;23588;-81
2023/10/12 01:54:05;;;;;;;11.30;5.70;;;;;;;16.39;76.81;96654.30;109177;1271;67893;-80
2023/10/12 01:56:37;;;;;;;12.50;5.60;;;;;;;16.32;76.93;96657.34;109231;1267;22497;-80
2023/10/12 01:59:11;;;;;;;12.90;5.70;;;;;;;16.23;77.04;96662.53;109275;1271;22515;-80
2023/10/12 02:01:46;;;;;;;11.00;6.30;;;;;;;16.16;77.23;96660.64;109191;1269;23849;-81
2023/10/12 02:04:22;;;;;;;12.80;5.60;;;;;;;16.11;77.57;96656.46;109096;1271;42487;-80
2023/10/12 02:06:56;;;;;;;13.20;5.90;;;;;;;16.06;77.56;96657.52;109132;1267;23829;-80
2023/10/12 02:09:28;;;;;;;10.90;5.70;;;;;;;15.98;77.78;96657.01;109197;1269;24217;-81
2023/10/12 02:12:09;;;;;;;11.40;5.60;;;;;;;15.91;77.93;96653.31;109277;1266;25313;-81
2023/10/12 02:14:41;;;;;;;11.90;6.30;;;;;;;15.84;78.38;96647.95;109185;1266;38103;-82
2023/10/12 02:17:15;;;;;;;15.60;7.00;;;;;;;15.77;78.58;96648.67;109189;1271;22527;-83
2023/10/12 02:19:50;;;;;;;12.00;5.90;;;;;;;15.70;78.93;96642.61;109272;1271;24250;-81
2023/10/12 02:22:24;;;;;;;13.60;6.80;;;;;;;15.67;79.21;96646.60;109214;1267;23106;-82
2023/10/12 02:25:17;;;;;;;12.70;5.90;;;;;;;15.63;79.32;96642.91;109190;1271;76068;-81
2023/10/12 02:27:58;;;;;;;12.60;6.00;;;;;;;15.59;79.42;96642.14;109290;1268;22526;-82
2023/10/12 02:30:32;;;;;;;12.60;5.80;;;;;;;15.54;79.61;96644.08;109314;1272;22513;-82
2023/10/12 02:33:17;;;;;;;14.10;6.60;;;;;;;15.54;79.88;96638.42;109251;1266;22510;-81
2023/10/12 02:35:50;;;;;;;10.90;6.30;;;;;;;15.66;80.26;96640.75;109223;1271;23850;-81
2023/10/12 02:38:27;;;;;;;11.50;6.60;;;;;;;15.72;80.19;96636.89;109201;1272;25287;-81
2023/10/12 02:40:59;;;;;;;10.00;6.20;;;;;;;15.80;80.08;96636.40;109210;1269;22544;-81
2023/10/12 02:43:37;;;;;;;12.20;6.30;;;;;;;15.83;80.03;96641.02;109212;1261;53292;-81
2023/10/12 02:46:23;;;;;;;10.90;6.60;;;;;;;15.76;79.76;96637.20;109215;1271;22641;-81
2023/10/12 02:48:54;;;;;;;11.70;6.60;;;;;;;15.69;79.90;96633.72;109222;1271;22689;-81
2023/10/12 02:51:39;;;;;;;10.80;6.70;;;;;;;15.64;79.94;96631.98;109265;1265;22563;-81
2023/10/12 02:54:26;;;;;;;11.70;6.60;;;;;;;15.64;80.21;96630.23;109146;1269;49261;-81
2023/10/12 02:57:09;;;;;;;13.30;6.40;;;;;;;15.65;80.28;96624.09;109223;1272;22517;-81
2023/10/12 02:59:57;;;;;;;13.20;6.40;;;;;;;15.64;80.29;96621.04;109202;1269;22550;-81
2023/10/12 03:02:34;;;;;;;12.10;6.60;;;;;;;15.62;80.33;96616.05;109214;1250;22507;-81
2023/10/12 03:05:12;;;;;;;12.90;6.10;;;;;;;15.65;80.57;96614.59;109207;1267;55608;-80
2023/10/12 03:07:46;;;;;;;21.00;8.00;;;;;;;15.66;80.47;96611.83;109237;1271;24196;-80
2023/10/12 03:10:26;;;;;;;12.20;7.00;;;;;;;15.64;80.45;96606.86;109202;1269;22507;-80
2023/10/12 03:13:17;;;;;;;12.10;7.00;;;;;;;15.60;80.52;96597.06;109250;1271;22501;-81
2023/10/12 03:15:56;;;;;;;12.70;6.80;;;;;;;15.54;80.70;96590.86;109166;1269;25479;-80
2023/10/12 03:18:36;;;;;;;9.30;6.30;;;;;;;15.56;80.92;96583.43;109187;1260;22605;-81
2023/10/12 03:21:12;;;;;;;;;;;;;;;15.63;80.99;96580.29;109181;1271;22498;-80
2023/10/12 03:23:46;;;;;;;12.30;6.40;;;;;;;15.66;80.82;96578.06;107638;1260;2040296;-80
2023/10/12 03:26:34;;;;;;;13.20;6.80;;;;;;;15.66;80.88;96570.77;109131;1260;22543;-81
2023/10/12 03:29:29;;;;;;;12.90;6.40;;;;;;;15.67;80.61;96570.58;109170;1269;22574;-80
2023/10/12 03:32:05;;;;;;;11.70;6.10;;;;;;;15.71;80.61;96574.16;109196;1271;24264;-80
2023/10/12 03:34:53;;;;;;;12.50;6.50;;;;;;;15.85;80.33;96576.48;109027;1269;162165;-80
2023/10/12 03:43:16;;;;;;;14.00;7.90;;;;;;;16.07;78.85;96567.81;109228;1269;23999;-80
2023/10/12 03:46:07;;;;;;;17.80;7.50;;;;;;;16.06;78.76;96563.84;109184;1272;22568;-81
2023/10/12 03:49:31;;;;;;;13.40;7.00;;;;;;;16.05;78.52;96567.27;109227;1269;22557;-81
2023/10/12 03:51:47;;;;;;;15.60;6.70;;;;;;;16.02;78.41;96565.42;109201;1269;22508;-80
2023/10/12 03:54:26;;;;;;;11.80;7.40;;;;;;;16.06;78.20;96565.15;109143;1272;48059;-80
2023/10/12 03:57:19;;;;;;;10.40;6.80;;;;;;;16.20;77.91;96565.79;109214;1269;24882;-80
2023/10/12 04:00:22;;;;;;;;;;;;;;;16.25;77.49;96557.29;109223;1272;23691;-80
2023/10/12 04:02:56;;;;;;;11.30;6.60;;;;;;;16.27;77.16;96569.99;109203;1272;23225;-81
2023/10/12 04:08:46;;;;;;;11.80;7.30;;;;;;;16.30;76.70;96575.59;109133;1266;24212;-81
2023/10/12 04:17:09;;;;;;;13.70;7.70;;;;;;;16.45;75.66;96566.33;109213;1269;22511;-80
2023/10/12 04:20:10;;;;;;;15.80;8.80;;;;;;;16.41;75.77;96571.66;109234;1272;22529;-80
2023/10/12 04:23:43;;;;;;;16.10;8.20;;;;;;;16.32;75.79;96574.02;109245;1268;23836;-81
2023/10/12 04:26:27;;;;;;;11.50;7.20;;;;;;;16.25;76.02;96566.70;109155;1272;23805;-81
2023/10/12 04:29:08;;;;;;;14.30;7.70;;;;;;;16.29;75.93;96578.08;109114;1253;22657;-81
2023/10/12 04:31:56;;;;;;;11.80;7.70;;;;;;;16.25;75.96;96577.90;109108;1266;25420;-81
2023/10/12 04:34:34;;;;;;;14.50;7.00;;;;;;;16.22;76.05;96584.45;109053;1272;43214;-81
2023/10/12 04:37:22;;;;;;;12.80;8.20;;;;;;;16.17;76.06;96582.80;109126;1269;22638;-81
2023/10/12 04:40:08;;;;;;;19.90;8.90;;;;;;;16.10;76.24;96581.08;109129;1272;22517;-81
2023/10/12 04:42:45;;;;;;;13.50;7.40;;;;;;;16.11;76.35;96582.30;109119;1250;22518;-81
2023/10/12 04:45:23;;;;;;;14.40;8.70;;;;;;;16.04;76.40;96582.02;109178;1266;51291;-81
2023/10/12 04:48:17;;;;;;;11.50;7.50;;;;;;;15.97;76.55;96584.24;109205;1267;25017;-81
2023/10/12 04:50:59;;;;;;;14.00;7.80;;;;;;;15.93;76.72;96585.06;109200;1266;24215;-81
2023/10/12 04:53:53;;;;;;;12.20;8.30;;;;;;;15.89;76.95;96586.52;109240;1272;25425;-81
2023/10/12 04:56:26;;;;;;;15.50;7.80;;;;;;;15.82;77.04;96588.57;109114;1272;22493;-81
2023/10/12 04:59:14;;;;;;;13.50;7.80;;;;;;;15.72;77.24;96578.17;109144;1269;22635;-81
2023/10/12 05:02:13;;;;;;;13.80;8.30;;;;;;;15.75;77.54;96585.58;109159;1266;22559;-81
2023/10/12 05:10:51;;;;;;;14.90;8.50;;;;;;;15.68;77.96;96598.56;105997;1299;545777;-81
2023/10/12 05:13:22;;;;;;;13.70;9.00;;;;;;;15.64;78.26;96592.33;109076;1265;22524;-82
2023/10/12 05:16:03;;;;;;;15.40;8.20;;;;;;;15.63;78.49;96588.61;108960;1269;64030;-81
2023/10/12 05:18:37;;;;;;;16.40;8.90;;;;;;;15.68;78.81;96594.67;108992;1274;25953;-81
2023/10/12 05:21:10;;;;;;;18.50;8.90;;;;;;;15.76;78.88;96595.71;109028;1270;23085;-81
2023/10/12 05:23:46;;;;;;;13.40;8.70;;;;;;;15.91;79.07;96596.46;108916;1272;205260;-81
2023/10/12 05:26:25;;;;;;;16.60;8.50;;;;;;;16.06;78.97;96596.64;109088;1272;22607;-81
2023/10/12 05:32:05;;;;;;;14.10;8.70;;;;;;;16.32;78.67;96600.52;109158;1272;22541;-81
2023/10/12 05:34:52;;;;;;;15.70;8.60;;;;;;;16.48;78.47;96598.98;109085;1272;34076;-81
2023/10/12 05:37:26;;;;;;;13.20;8.20;;;;;;;16.55;78.04;96595.42;109081;1266;24190;-81
2023/10/12 05:39:59;;;;;;;13.60;8.70;;;;;;;16.68;78.19;96592.23;109085;1272;25420;-80
2023/10/12 05:42:39;;;;;;;15.70;9.10;;;;;;;16.91;78.17;96592.48;109078;1266;24711;-81
2023/10/12 05:45:34;;;;;;;11.80;7.70;;;;;;;17.17;77.92;96595.01;109037;1266;104726;-81
2023/10/12 05:48:08;;;;;;;12.20;8.50;;;;;;;17.27;76.78;96594.05;109121;1272;25443;-81
2023/10/12 05:50:49;;;;;;;14.00;9.00;;;;;;;17.02;76.16;96593.35;109141;1266;22527;-80
2023/10/12 05:53:21;;;;;;;12.40;8.40;;;;;;;16.95;77.34;96591.13;109137;1272;22654;-81
2023/10/12 05:55:56;;;;;;;13.20;7.60;;;;;;;17.47;77.79;96587.94;109063;1266;51365;-81
2023/10/12 05:58:32;;;;;;;12.10;8.30;;;;;;;17.91;76.24;96584.48;109099;1260;22564;-81
2023/10/12 06:01:09;;;;;;;10.60;7.90;;;;;;;18.20;75.80;96585.70;109155;1272;25287;-81
2023/10/12 06:03:56;;;;;;;13.50;8.60;;;;;;;18.36;74.50;96590.13;108839;1251;1731828;-81
2023/10/12 06:06:31;;;;;;;10.90;7.60;;;;;;;18.45;74.18;96595.88;109099;1272;22507;-81
2023/10/12 06:09:11;;;;;;;13.60;8.60;;;;;;;18.66;73.95;96594.96;109127;1272;22512;-80
2023/10/12 06:11:48;;;;;;;14.20;8.30;;;;;;;18.87;72.95;96595.40;109074;1258;22480;-81
2023/10/12 06:14:20;;;;;;;13.10;8.10;;;;;;;18.94;72.36;96592.80;109055;1272;121167;-81
2023/10/12 06:16:58;;;;;;;14.40;8.40;;;;;;;18.99;71.97;96594.13;109108;1272;25418;-82
2023/10/12 06:19:36;;;;;;;10.40;7.00;;;;;;;18.90;71.20;96597.66;109120;1272;22507;-81
2023/10/12 06:22:19;;;;;;;14.70;8.30;;;;;;;18.99;71.44;96595.34;109093;1266;25326;-81
2023/10/12 06:24:52;;;;;;;13.10;7.70;;;;;;;19.00;70.89;96604.96;108994;1270;104167;-83
2023/10/12 06:27:25;;;;;;;14.20;7.40;;;;;;;18.79;70.03;96596.73;109107;1269;22521;-82
2023/10/12 06:30:03;;;;;;;13.50;8.10;;;;;;;18.29;69.96;96605.39;109099;1272;25432;-82
2023/10/12 06:32:39;;;;;;;13.50;8.20;;;;;;;17.88;70.61;96598.33;109078;1271;22510;-81
2023/10/12 06:35:25;;;;;;;10.90;7.40;;;;;;;17.66;71.57;96597.29;105149;1268;5144106;-83
2023/10/12 06:38:22;;;;;;;12.70;8.50;;;;;;;17.80;72.41;96592.40;109067;1272;23794;-82
2023/10/12 06:41:28;;;;;;;12.60;8.10;;;;;;;18.11;72.58;96590.05;109085;1272;22656;-82
2023/10/12 06:44:13;;;;;;;13.30;7.70;;;;;;;18.25;71.94;96594.11;109126;1272;23271;-82
2023/10/12 06:46:48;;;;;;;11.50;7.60;;;;;;;18.34;72.00;96591.45;109227;1271;22637;-82
2023/10/12 06:49:24;;;;;;;11.00;7.20;;;;;;;18.44;71.65;96589.17;109172;1265;23216;-82
2023/10/12 06:52:00;;;;;;;12.10;8.20;;;;;;;18.47;71.46;96593.04;109227;1271;22571;-81
2023/10/12 06:54:39;;;;;;;13.40;7.80;;;;;;;18.42;71.14;96587.94;109170;1266;63663;-82
2023/10/12 06:57:35;;;;;;;9.90;7.00;;;;;;;18.40;71.22;96594.23;109216;1271;22545;-82
2023/10/12 07:00:29;;;;;;;12.90;7.90;;;;;;;18.32;71.14;96602.12;109203;1272;23750;-81
2023/10/12 07:03:08;;;;;;;15.60;7.80;;;;;;;18.26;71.10;96599.21;109200;1269;22537;-81
2023/10/12 07:05:44;;;;;;;12.00;7.50;;;;;;;18.17;71.22;96609.80;107878;1271;1744842;-82
2023/10/12 07:08:21;;;;;;;13.50;7.60;;;;;;;18.11;71.36;96612.36;109216;1271;24190;-82
2023/10/12 07:11:00;;;;;;;15.00;7.60;;;;;;;18.08;71.36;96601.67;109286;1269;22599;-81
2023/10/12 07:13:38;;;;;;;13.10;7.40;;;;;;;18.06;71.44;96604.65;109169;1272;22577;-82
2023/10/12 07:16:20;;;;;;;14.50;7.10;;;;;;;18.06;71.59;96601.05;109182;1271;66092;-82
2023/10/12 07:18:53;;;;;;;11.50;7.60;;;;;;;17.99;71.54;96597.50;109210;1269;24243;-82
2023/10/12 07:21:25;;;;;;;13.10;7.50;;;;;;;17.90;71.76;96596.64;109218;1262;22583;-83
2023/10/12 07:23:57;;;;;;;11.20;7.50;;;;;;;17.90;72.05;96597.09;109204;1269;25959;-82
2023/10/12 07:26:35;;;;;;;13.40;7.30;;;;;;;17.93;72.10;96589.08;109211;1266;24235;-82
2023/10/12 07:29:19;;;;;;;12.50;8.20;;;;;;;17.99;72.69;96589.92;109239;1271;24174;-84
2023/10/12 07:31:51;;;;;;;14.00;7.50;;;;;;;18.21;72.72;96596.58;109184;1269;24933;-82
2023/10/12 07:34:24;;;;;;;12.70;7.50;;;;;;;18.40;72.59;96591.20;109167;1265;42106;-83
2023/10/12 07:36:57;;;;;;;17.10;7.70;;;;;;;18.57;72.00;96587.88;109245;1266;24203;-82
2023/10/12 07:39:42;;;;;;;14.10;7.70;;;;;;;18.72;71.86;96581.45;109199;1271;22524;-82
2023/10/12 07:42:25;;;;;;;14.50;7.20;;;;;;;18.87;71.09;96572.67;109170;1271;22515;-82
2023/10/12 07:45:05;;;;;;;12.70;6.90;;;;;;;18.89;71.38;96581.21;109236;1266;41998;-82
2023/10/12 07:47:46;;;;;;;13.50;7.40;;;;;;;19.06;71.23;96581.99;109169;1251;22528;-82
2023/10/12 07:50:25;;;;;;;13.70;6.80;;;;;;;19.17;71.07;96579.62;109246;1271;22515;-83
2023/10/12 07:53:06;;;;;;;9.80;6.80;;;;;;;19.13;70.61;96584.77;109233;1266;22479;-82
2023/10/12 07:55:42;;;;;;;12.50;7.20;;;;;;;18.89;70.11;96576.59;109074;1271;57797;-82
2023/10/12 07:58:18;;;;;;;11.80;7.20;;;;;;;18.63;70.43;96586.96;109219;1272;22513;-82
2023/10/12 08:00:59;;;;;;;13.50;7.10;;;;;;;18.66;71.14;96580.86;109214;1271;22531;-83
2023/10/12 08:03:39;;;;;;;11.50;6.70;;;;;;;18.81;71.12;96572.02;109183;1269;23957;-82
2023/10/12 08:06:15;;;;;;;16.00;7.00;;;;;;;18.87;71.00;96575.08;109232;1267;49243;-82
2023/10/12 08:08:48;;;;;;;12.30;7.40;;;;;;;18.92;70.70;96570.33;109241;1271;22567;-83
2023/10/12 08:11:27;;;;;;;13.00;7.40;;;;;;;19.05;71.02;96570.74;109210;1271;22504;-81
2023/10/12 08:14:09;;;;;;;16.10;7.40;;;;;;;19.11;70.18;96563.20;109216;1269;24311;-82
2023/10/12 08:16:42;;;;;;;15.30;7.60;;;;;;;19.09;70.17;96562.22;109180;1271;24006;-81
2023/10/12 08:19:28;;;;;;;11.70;6.90;;;;;;;18.99;69.87;96558.83;109284;1271;24422;-81
2023/10/12 08:22:08;;;;;;;12.40;6.80;;;;;;;19.07;70.49;96560.77;109187;1272;24423;-82
2023/10/12 08:24:45;;;;;;;9.30;7.10;;;;;;;19.17;70.02;96560.72;109161;1271;58491;-82
2023/10/12 08:27:19;;;;;;;12.90;6.90;;;;;;;19.25;70.18;96556.52;109201;1272;22550;-82
2023/10/12 08:30:14;;;;;;;13.00;6.90;;;;;;;19.37;69.86;96561.57;109221;1271;22519;-82
2023/10/12 08:32:55;;;;;;;12.30;6.50;;;;;;;19.44;69.83;96558.05;109216;1271;22533;-82
2023/10/12 08:36:22;;;;;;;13.40;7.60;;;;;;;19.64;70.08;96559.16;109188;1269;59938;-83
2023/10/12 08:38:40;;;;;;;10.90;7.10;;;;;;;19.85;69.05;96549.42;109244;1271;25294;-82
2023/10/12 08:41:29;;;;;;;10.40;5.90;;;;;;;19.90;68.68;96553.50;109198;1266;24188;-82
2023/10/12 08:44:00;;;;;;;12.50;6.60;;;;;;;20.03;68.60;96552.56;109235;1266;22516;-83
2023/10/12 08:46:56;;;;;;;9.70;6.20;;;;;;;20.17;68.42;96551.35;109228;1271;22533;-82
2023/10/12 08:49:52;;;;;;;9.80;6.40;;;;;;;20.25;68.30;96548.71;109221;1269;24221;-82
2023/10/12 08:52:31;;;;;;;15.10;6.80;;;;;;;20.32;67.86;96546.48;109224;1267;22519;-82
2023/10/12 08:55:11;;;;;;;10.50;6.30;;;;;;;20.37;67.92;96549.09;109152;1269;72213;-83
2023/10/12 08:57:52;;;;;;;11.50;6.70;;;;;;;20.47;67.26;96548.38;109191;1271;23799;-83
2023/10/12 09:00:42;;;;;;;11.80;6.60;;;;;;;20.55;67.20;96544.34;109205;1269;22530;-82
2023/10/12 09:03:28;;;;;;;12.90;6.50;;;;;;;20.55;66.77;96543.21;109224;1269;24202;-83
2023/10/12 09:06:07;;;;;;;12.90;6.90;;;;;;;20.63;66.94;96547.33;109214;1268;36320;-83
2023/10/12 09:08:46;;;;;;;13.10;5.90;;;;;;;20.75;66.75;96543.50;109263;1271;22476;-83
2023/10/12 09:11:19;;;;;;;11.60;5.90;;;;;;;20.83;66.60;96545.01;109263;1271;22814;-83
2023/10/12 09:13:51;;;;;;;12.20;5.90;;;;;;;20.87;65.83;96536.81;109169;1271;23673;-82
2023/10/12 09:16:22;;;;;;;12.00;6.50;;;;;;;20.88;65.87;96536.90;109049;1271;144971;-83
2023/10/12 09:18:59;;;;;;;9.90;5.40;;;;;;;20.95;65.34;96532.69;109231;1266;22553;-83
2023/10/12 09:21:39;;;;;;;10.60;5.90;;;;;;;20.99;65.24;96535.96;109212;1271;24166;-83
2023/10/12 09:24:27;;;;;;;11.60;6.20;;;;;;;21.01;65.23;96537.32;109187;1269;71002;-82
2023/10/12 09:27:01;;;;;;;15.30;6.00;;;;;;;21.10;64.68;96534.44;109225;1269;23862;-82
2023/10/12 09:29:42;;;;;;;13.70;6.20;;;;;;;21.12;63.65;96527.42;109236;1263;22640;-82
2023/10/12 09:32:24;;;;;;;11.80;5.40;;;;;;;21.16;63.86;96530.98;109156;1271;22494;-82
2023/10/12 09:37:52;;;;;;;13.20;7.10;;;;;;;21.45;63.59;96522.77;108973;1266;22513;-82
2023/10/12 09:40:38;;;;;;;14.50;6.40;;;;;;;21.57;63.64;96522.11;109181;1272;22557;-83
2023/10/12 09:43:16;;;;;;;9.70;5.90;;;;;;;21.67;62.79;96519.70;109228;1272;24177;-82
2023/10/12 09:45:55;;;;;;;11.90;5.60;;;;;;;21.69;62.69;96516.30;109233;1269;36162;-81
2023/10/12 09:48:29;;;;;;;10.10;5.70;;;;;;;21.76;62.42;96523.15;109232;1250;22549;-83
2023/10/12 09:51:07;;;;;;;11.80;5.60;;;;;;;21.87;61.92;96516.59;109204;1270;24247;-82
2023/10/12 09:53:43;;;;;;;10.00;5.60;;;;;;;21.97;61.79;96514.58;109230;1271;25456;-82
2023/10/12 09:56:24;;;;;;;12.20;5.40;;;;;;;22.10;61.00;96517.02;107623;1271;2066231;-82
2023/10/12 09:59:07;;;;;;;12.40;5.10;;;;;;;22.15;59.98;96513.05;109256;1271;22628;-83
2023/10/12 10:01:50;;;;;;;10.70;4.90;;;;;;;22.23;59.84;96512.05;109197;1266;24222;-83
2023/10/12 10:04:34;;;;;;;10.20;5.40;;;;;;;22.33;60.09;96501.04;109162;1271;42895;-82
2023/10/12 10:07:17;;;;;;;9.30;5.30;;;;;;;22.37;59.38;96499.42;109231;1266;22642;-84
2023/10/12 10:09:53;;;;;;;12.40;5.40;;;;;;;22.42;59.26;96498.46;109229;1271;22544;-84
2023/10/12 10:12:27;;;;;;;12.20;5.60;;;;;;;22.44;59.00;96495.80;109249;1271;22541;-82
2023/10/12 10:15:00;;;;;;;12.30;5.40;;;;;;;22.54;59.25;96489.33;109202;1269;46374;-83
2023/10/12 10:17:46;;;;;;;12.80;5.00;;;;;;;22.64;58.97;96490.19;109202;1271;25339;-83
2023/10/12 10:20:46;;;;;;;11.50;5.30;;;;;;;22.62;58.18;96490.31;109195;1251;22547;-83
2023/10/12 10:23:19;;;;;;;7.60;4.30;;;;;;;22.69;58.18;96481.95;109246;1269;22638;-83
2023/10/12 10:26:16;;;;;;;12.60;5.00;;;;;;;22.73;57.79;96481.56;109148;1271;34152;-83
2023/10/12 10:28:55;;;;;;;13.80;5.40;;;;;;;22.73;57.75;96479.10;109205;1272;22570;-83
2023/10/12 10:31:35;;;;;;;12.40;5.90;;;;;;;22.74;57.74;96476.02;109183;1260;23093;-82
2023/10/12 10:34:07;;;;;;;10.80;5.20;;;;;;;22.69;57.50;96476.17;109227;1251;55451;-83
2023/10/12 10:36:44;;;;;;;10.70;5.20;;;;;;;22.68;57.55;96472.07;109188;1269;22544;-82
2023/10/12 10:39:29;;;;;;;10.00;5.30;;;;;;;22.67;57.16;96476.58;109216;1272;22642;-83
2023/10/12 10:42:04;;;;;;;10.80;5.70;;;;;;;22.69;57.89;96484.20;109239;1269;24346;-83
2023/10/12 10:44:42;;;;;;;10.40;4.70;;;;;;;22.71;58.02;96483.00;109144;1271;72980;-83
2023/10/12 10:47:15;;;;;;;13.50;5.20;;;;;;;22.78;57.94;96486.59;109233;1271;23663;-83
2023/10/12 10:49:49;;;;;;;10.40;4.60;;;;;;;22.90;58.13;96486.98;109231;1272;22480;-84
2023/10/12 10:52:21;;;;;;;10.00;5.00;;;;;;;22.90;57.30;96489.13;109209;1271;22830;-84
2023/10/12 10:54:59;;;;;;;8.80;4.60;;;;;;;22.92;57.27;96489.23;109172;1271;46890;-84
2023/10/12 10:57:37;;;;;;;8.90;5.10;;;;;;;23.01;57.26;96489.33;109237;1267;22526;-84
2023/10/12 11:00:16;;;;;;;9.30;5.00;;;;;;;23.08;56.77;96495.08;109229;1271;25393;-84
2023/10/12 11:02:52;;;;;;;10.00;5.30;;;;;;;23.20;56.80;96497.13;109249;1272;22511;-83
2023/10/12 11:05:28;;;;;;;10.60;4.40;;;;;;;23.28;56.75;96499.10;109230;1269;38165;-84
2023/10/12 11:08:18;;;;;;;10.50;5.20;;;;;;;23.32;56.01;96499.39;109247;1272;22618;-84
2023/10/12 11:13:44;;;;;;;9.30;3.90;;;;;;;23.38;55.68;96506.53;109273;1269;22570;-83
2023/10/12 11:16:28;;;;;;;9.10;5.20;;;;;;;23.42;55.56;96504.89;109134;1269;81344;-83
2023/10/12 11:19:01;;;;;;;9.60;4.80;;;;;;;23.53;54.95;96501.89;109204;1271;22521;-84
2023/10/12 11:21:34;;;;;;;12.30;4.90;;;;;;;23.56;54.52;96504.63;109205;1272;22545;-83
2023/10/12 11:24:09;;;;;;;9.70;4.90;;;;;;;23.49;53.25;96497.95;109174;1264;56668;-82
2023/10/12 11:26:54;;;;;;;11.30;5.20;;;;;;;23.47;53.58;96500.39;109223;1272;22544;-83
2023/10/12 11:29:27;;;;;;;10.30;5.30;;;;;;;23.56;53.74;96496.45;109215;1272;23160;-83
2023/10/12 11:32:11;;;;;;;11.00;5.00;;;;;;;23.61;53.99;96494.60;109201;1270;22514;-83
2023/10/12 11:34:52;;;;;;;9.20;4.50;;;;;;;23.62;52.65;96485.95;109167;1271;70513;-83
2023/10/12 11:37:26;;;;;;;10.20;4.30;;;;;;;23.56;52.29;96494.12;109253;1269;22524;-82
2023/10/12 11:39:59;;;;;;;7.60;4.30;;;;;;;23.60;53.33;96489.62;109204;1272;24929;-82
2023/10/12 11:42:30;;;;;;;7.50;4.60;;;;;;;23.61;53.07;96485.02;109197;1270;22555;-83
2023/10/12 11:45:10;;;;;;;11.60;4.80;;;;;;;23.61;52.39;96489.88;109195;1268;50948;-82
2023/10/12 11:47:46;;;;;;;10.80;4.60;;;;;;;23.62;52.47;96496.07;109233;1270;22566;-82
2023/10/12 11:50:31;;;;;;;7.60;3.70;;;;;;;23.44;52.03;96498.80;109226;1272;25401;-83
2023/10/12 11:53:04;;;;;;;8.30;4.10;;;;;;;23.16;51.56;96498.53;109189;1272;22514;-82
2023/10/12 11:55:40;;;;;;;8.00;4.00;;;;;;;22.91;51.31;96498.20;109129;1271;99761;-82
2023/10/12 11:58:19;;;;;;;10.00;4.60;;;;;;;22.65;50.26;96499.64;109240;1272;22529;-82
2023/10/12 12:00:51;;;;;;;9.40;4.10;;;;;;;22.40;50.05;96497.23;109202;1269;23680;-82
2023/10/12 12:03:22;;;;;;;10.00;4.40;;;;;;;22.23;50.06;96498.92;109184;1272;23045;-82
2023/10/12 12:05:54;;;;;;;11.50;4.40;;;;;;;22.20;50.33;96498.48;109183;1271;39482;-83
2023/10/12 12:08:29;;;;;;;11.10;4.90;;;;;;;22.40;50.91;96505.59;109217;1271;24155;-82
2023/10/12 12:11:04;;;;;;;11.00;4.70;;;;;;;22.61;50.69;96506.14;109227;1269;22590;-82
2023/10/12 12:13:42;;;;;;;8.90;4.10;;;;;;;22.75;50.71;96512.33;109110;1271;22533;-82
2023/10/12 12:16:20;;;;;;;8.80;4.40;;;;;;;22.86;50.11;96516.64;109151;1270;66017;-83
2023/10/12 12:18:53;;;;;;;10.50;4.80;;;;;;;22.91;49.97;96515.95;109176;1271;22664;-81
2023/10/12 12:21:31;;;;;;;11.40;4.90;;;;;;;22.83;49.48;96520.36;109240;1271;24387;-81
2023/10/12 12:24:22;;;;;;;9.30;4.60;;;;;;;22.66;49.87;96519.88;109189;1270;22543;-81
2023/10/12 12:26:54;;;;;;;11.40;4.50;;;;;;;22.58;49.75;96505.69;109104;1266;22563;-82
2023/10/12 12:29:26;;;;;;;8.80;4.70;;;;;;;22.49;50.25;96531.38;109100;1272;22525;-82
2023/10/12 12:31:58;;;;;;;10.40;4.70;;;;;;;22.42;50.29;96533.11;109115;1272;22525;-82
2023/10/12 12:34:41;;;;;;;9.30;5.50;;;;;;;22.30;50.42;96531.40;109081;1272;50006;-81
2023/10/12 12:37:25;;;;;;;10.10;4.70;;;;;;;22.13;50.43;96538.70;109090;1272;23765;-79
2023/10/12 12:40:27;;;;;;;10.80;5.20;;;;;;;21.98;50.93;96541.65;109144;1272;24286;-81
2023/10/12 12:43:11;;;;;;;11.20;5.00;;;;;;;21.91;51.46;96544.53;109136;1272;22677;-79
2023/10/12 12:46:22;;;;;;;8.80;4.80;;;;;;;21.86;51.93;96543.80;108956;1272;31451;-77
2023/10/12 12:48:57;;;;;;;11.10;5.20;;;;;;;21.84;52.38;96545.00;108845;1270;22577;-78